Time;durP1;ratioP1;P1;durP2;ratioP2;P2;SDS_P1;SDS_P2;PMS_P1;PMS_P2;Temp;Humidity;BMP_temperature;BMP_pressure;BME280_temperature;BME280_humidity;BME280_pressure;Samples;Min_cycle;Max_cycle;Signal;HPM_P1;HPM_P2
2021/12/31 00:00:39;;;;;;;203.70;95.68;;;6.30;99.90;;;;;;5096612;28;20032;-64
2021/12/31 00:03:05;;;;;;;198.27;89.90;;;6.30;99.90;;;;;;5096522;28;20469;-65
2021/12/31 00:05:31;;;;;;;199.02;89.60;;;6.30;99.90;;;;;;5096273;28;20036;-64
2021/12/31 00:07:57;;;;;;;195.57;92.22;;;6.30;99.90;;;;;;5096366;28;20028;-64
2021/12/31 00:10:23;;;;;;;187.13;85.35;;;6.30;99.90;;;;;;5096442;28;20066;-65
2021/12/31 00:12:49;;;;;;;185.30;87.32;;;6.30;99.90;;;;;;5086601;28;20033;-65
2021/12/31 00:15:15;;;;;;;177.93;83.65;;;6.30;99.90;;;;;;5076302;28;20051;-64
2021/12/31 00:17:42;;;;;;;169.48;78.45;;;6.20;99.90;;;;;;5075897;28;20031;-65
2021/12/31 00:20:14;;;;;;;186.73;86.13;;;6.30;99.90;;;;;;5075653;28;20453;-65
2021/12/31 00:25:41;;;;;;;212.95;96.53;;;6.20;99.90;;;;;;5031035;28;20040;-65
2021/12/31 00:28:09;;;;;;;231.20;101.93;;;6.30;99.90;;;;;;5075547;28;20029;-65
2021/12/31 00:30:36;;;;;;;240.45;108.93;;;6.30;99.90;;;;;;5075810;28;20063;-65
2021/12/31 00:33:03;;;;;;;248.63;108.82;;;6.30;99.90;;;;;;5091808;28;20067;-65
2021/12/31 00:35:30;;;;;;;195.90;90.78;;;6.40;99.90;;;;;;5095821;28;20036;-65
2021/12/31 00:37:58;;;;;;;197.32;89.15;;;6.30;99.90;;;;;;5095799;28;20093;-65
2021/12/31 00:40:25;;;;;;;208.48;98.70;;;6.30;99.90;;;;;;5095761;28;20039;-64
2021/12/31 00:42:51;;;;;;;219.85;100.72;;;6.20;99.90;;;;;;5095553;28;20032;-65
2021/12/31 00:45:19;;;;;;;206.35;99.22;;;6.10;99.90;;;;;;5095583;28;20095;-65
2021/12/31 00:47:46;;;;;;;209.13;103.45;;;6.00;99.90;;;;;;5095485;28;20047;-65
2021/12/31 00:50:14;;;;;;;195.85;97.30;;;6.00;99.90;;;;;;5095803;28;20036;-65
2021/12/31 00:52:40;;;;;;;192.43;92.95;;;5.90;99.90;;;;;;5095681;28;20121;-65
2021/12/31 00:55:08;;;;;;;203.82;98.70;;;5.90;99.90;;;;;;5095611;28;20036;-65
2021/12/31 00:57:34;;;;;;;188.77;91.00;;;5.90;99.90;;;;;;5095561;28;20036;-65
2021/12/31 01:00:00;;;;;;;192.80;92.20;;;5.80;99.90;;;;;;5095384;28;20044;-65
2021/12/31 01:02:28;;;;;;;206.50;99.53;;;5.70;99.90;;;;;;5095336;28;20119;-64
2021/12/31 01:04:55;;;;;;;210.18;98.75;;;5.70;99.90;;;;;;5095374;28;20094;-65
2021/12/31 01:07:22;;;;;;;218.32;99.63;;;5.60;99.90;;;;;;5095339;28;20089;-65
2021/12/31 01:09:48;;;;;;;192.00;90.28;;;5.50;99.90;;;;;;5095019;28;20035;-65
2021/12/31 01:12:14;;;;;;;209.98;99.90;;;5.40;99.90;;;;;;5090488;28;20337;-65
2021/12/31 01:14:54;;;;;;;213.10;102.25;;;5.40;99.90;;;;;;5074770;28;20037;-65
2021/12/31 01:17:35;;;;;;;199.98;96.30;;;5.30;99.90;;;;;;5056778;28;20111;-65
2021/12/31 01:20:01;;;;;;;198.88;94.53;;;5.20;99.90;;;;;;5074579;28;20058;-65
2021/12/31 01:22:30;;;;;;;195.80;91.55;;;5.20;99.90;;;;;;5074668;28;20033;-65
2021/12/31 01:24:57;;;;;;;185.82;95.28;;;5.10;99.90;;;;;;5074600;28;20115;-65
2021/12/31 01:27:23;;;;;;;184.75;90.72;;;5.10;99.90;;;;;;5074433;28;20033;-65
2021/12/31 01:29:50;;;;;;;195.68;91.95;;;5.00;99.90;;;;;;5074704;28;20044;-64
2021/12/31 01:32:16;;;;;;;191.48;91.93;;;4.90;99.90;;;;;;5084060;28;20410;-65
2021/12/31 01:34:42;;;;;;;191.73;90.80;;;4.90;99.90;;;;;;5094875;28;20040;-64
2021/12/31 01:37:09;;;;;;;179.10;85.60;;;4.80;99.90;;;;;;5094939;28;20132;-65
2021/12/31 01:39:36;;;;;;;169.93;80.35;;;4.70;99.90;;;;;;5093984;28;20036;-65
2021/12/31 01:42:06;;;;;;;170.65;83.05;;;4.70;99.90;;;;;;5094938;28;20031;-65
2021/12/31 01:44:38;;;;;;;168.52;78.82;;;4.50;99.90;;;;;;5094679;28;20032;-65
2021/12/31 01:47:09;;;;;;;159.43;74.57;;;4.50;99.90;;;;;;5094622;28;20068;-65
2021/12/31 01:49:39;;;;;;;183.88;89.97;;;4.50;99.90;;;;;;5095120;28;20044;-64
2021/12/31 01:52:08;;;;;;;167.18;81.32;;;4.60;99.90;;;;;;5094609;28;20560;-64
2021/12/31 01:54:36;;;;;;;213.13;98.07;;;4.70;99.90;;;;;;5094539;28;20060;-64
2021/12/31 01:57:04;;;;;;;205.02;96.75;;;4.70;99.90;;;;;;5094758;28;20373;-64
2021/12/31 01:59:31;;;;;;;211.50;101.50;;;4.70;99.90;;;;;;5094252;28;20048;-64
2021/12/31 02:01:58;;;;;;;203.57;98.95;;;4.70;99.90;;;;;;5094593;28;20020;-65
2021/12/31 02:04:24;;;;;;;212.57;101.32;;;4.70;99.90;;;;;;5094554;28;20040;-64
2021/12/31 02:06:50;;;;;;;199.40;95.65;;;4.70;99.90;;;;;;5094431;28;20040;-64
2021/12/31 02:09:15;;;;;;;196.45;92.65;;;4.70;99.90;;;;;;5094472;28;20139;-65
2021/12/31 02:11:41;;;;;;;185.57;91.07;;;4.70;99.90;;;;;;5094240;28;20032;-65
2021/12/31 02:14:08;;;;;;;207.68;96.35;;;4.70;99.90;;;;;;5074036;28;20051;-65
2021/12/31 02:16:34;;;;;;;211.27;96.22;;;4.60;99.90;;;;;;5074118;28;20379;-65
2021/12/31 02:19:12;;;;;;;186.13;88.82;;;4.60;99.90;;;;;;5074087;28;20082;-65
2021/12/31 02:21:41;;;;;;;190.38;91.18;;;4.60;99.90;;;;;;5074067;28;20056;-65
2021/12/31 02:24:07;;;;;;;192.50;88.68;;;4.50;99.90;;;;;;5074060;28;20487;-64
2021/12/31 02:26:33;;;;;;;183.80;83.63;;;4.60;99.90;;;;;;5074014;28;20130;-65
2021/12/31 02:28:59;;;;;;;167.45;80.50;;;4.60;99.90;;;;;;5073891;28;20079;-64
2021/12/31 02:31:25;;;;;;;198.73;96.22;;;4.60;99.90;;;;;;5076560;28;20055;-65
2021/12/31 02:33:51;;;;;;;204.35;94.90;;;4.50;99.90;;;;;;5094138;28;20037;-65
2021/12/31 02:36:19;;;;;;;178.73;84.68;;;4.50;99.90;;;;;;5094167;28;20040;-65
2021/12/31 02:38:45;;;;;;;174.60;82.85;;;4.60;99.90;;;;;;5094035;28;20074;-65
2021/12/31 02:41:11;;;;;;;173.52;85.20;;;4.60;99.90;;;;;;5094021;28;20024;-65
2021/12/31 02:43:38;;;;;;;197.63;92.40;;;4.60;99.90;;;;;;5094002;28;20035;-65
2021/12/31 02:46:05;;;;;;;277.30;124.45;;;4.70;99.90;;;;;;5094092;28;20047;-65
2021/12/31 02:48:31;;;;;;;275.15;128.35;;;4.70;99.90;;;;;;5094239;28;20040;-65
2021/12/31 02:51:00;;;;;;;222.38;110.40;;;4.70;99.90;;;;;;5094471;28;20028;-65
2021/12/31 02:53:32;;;;;;;203.50;95.32;;;4.60;99.90;;;;;;5098107;28;20048;-65
2021/12/31 02:56:01;;;;;;;175.93;88.82;;;4.60;99.90;;;;;;5097965;28;20119;-65
2021/12/31 02:58:28;;;;;;;188.85;92.22;;;4.50;99.90;;;;;;5097814;28;20047;-65
2021/12/31 03:00:54;;;;;;;192.82;95.15;;;4.50;99.90;;;;;;5097871;28;20090;-65
2021/12/31 03:03:22;;;;;;;182.02;87.20;;;4.50;99.90;;;;;;5097420;28;20028;-65
2021/12/31 03:05:50;;;;;;;200.90;96.03;;;4.40;99.90;;;;;;5097519;28;20085;-65
2021/12/31 03:08:17;;;;;;;201.88;96.30;;;4.40;99.90;;;;;;5097686;28;20136;-65
2021/12/31 03:10:44;;;;;;;195.80;100.38;;;4.40;99.90;;;;;;5097251;28;20040;-65
2021/12/31 03:13:10;;;;;;;295.42;126.65;;;4.40;99.90;;;;;;5085057;28;20551;-65
2021/12/31 03:15:38;;;;;;;456.30;177.25;;;4.40;99.90;;;;;;5077070;28;20111;-65
2021/12/31 03:18:06;;;;;;;460.50;182.52;;;4.30;99.90;;;;;;5067317;28;20033;-65
2021/12/31 03:20:41;;;;;;;456.88;180.90;;;4.20;99.90;;;;;;5057130;28;20056;-65
2021/12/31 03:23:08;;;;;;;391.85;152.52;;;4.20;99.90;;;;;;5056989;28;20143;-65
2021/12/31 03:25:34;;;;;;;312.67;133.20;;;4.20;99.90;;;;;;5056846;28;20545;-65
2021/12/31 03:28:00;;;;;;;276.38;123.18;;;4.20;99.90;;;;;;5077056;28;20110;-65
2021/12/31 03:30:26;;;;;;;223.63;106.63;;;4.20;99.90;;;;;;5077003;28;20505;-65
2021/12/31 03:32:53;;;;;;;262.75;116.68;;;4.20;99.90;;;;;;5091387;28;20036;-65
2021/12/31 03:35:19;;;;;;;247.93;113.22;;;4.20;99.90;;;;;;5097337;28;20050;-65
2021/12/31 03:37:46;;;;;;;229.80;106.85;;;4.20;99.90;;;;;;5096980;28;20428;-65
2021/12/31 03:40:12;;;;;;;246.85;111.28;;;4.10;99.90;;;;;;5096675;28;20042;-65
2021/12/31 03:42:39;;;;;;;246.48;108.25;;;4.10;99.90;;;;;;5096906;28;20032;-65
2021/12/31 03:45:06;;;;;;;235.30;105.72;;;4.00;99.90;;;;;;5096732;28;20139;-65
2021/12/31 03:47:32;;;;;;;227.55;106.93;;;4.00;99.90;;;;;;5096658;28;20032;-65
2021/12/31 03:49:58;;;;;;;373.35;141.80;;;4.00;99.90;;;;;;5097204;28;20081;-65
2021/12/31 03:52:23;;;;;;;235.27;103.78;;;4.00;99.90;;;;;;5096637;28;20036;-65
2021/12/31 03:54:49;;;;;;;229.02;102.97;;;4.00;99.90;;;;;;5096793;28;20036;-65
2021/12/31 03:57:15;;;;;;;234.27;108.47;;;4.10;99.90;;;;;;5096839;28;20089;-65
2021/12/31 03:59:41;;;;;;;227.23;106.57;;;4.10;99.90;;;;;;5096459;28;20482;-65
2021/12/31 04:02:07;;;;;;;266.15;117.80;;;4.30;99.90;;;;;;5096300;28;20032;-65
2021/12/31 04:04:33;;;;;;;287.23;123.57;;;4.30;99.90;;;;;;5095935;28;20086;-65
2021/12/31 04:06:59;;;;;;;510.05;202.38;;;4.40;99.90;;;;;;5096216;28;20148;-65
2021/12/31 04:09:25;;;;;;;527.20;212.98;;;4.30;99.90;;;;;;5096487;28;20036;-65
2021/12/31 04:11:51;;;;;;;423.92;167.80;;;4.40;99.90;;;;;;5094984;28;20536;-65
2021/12/31 04:14:17;;;;;;;328.00;140.10;;;4.40;99.90;;;;;;5075813;28;20048;-65
2021/12/31 04:16:43;;;;;;;303.42;134.27;;;4.40;99.90;;;;;;5076033;28;20470;-65
2021/12/31 04:19:09;;;;;;;277.33;122.90;;;4.40;99.90;;;;;;5075964;28;20449;-65
2021/12/31 04:21:35;;;;;;;283.30;126.03;;;4.30;99.90;;;;;;5075688;28;20040;-65
2021/12/31 04:24:08;;;;;;;256.70;117.82;;;4.30;99.90;;;;;;5075955;28;20044;-65
2021/12/31 04:26:34;;;;;;;280.67;135.50;;;4.30;99.90;;;;;;5075714;28;20401;-65
2021/12/31 04:29:00;;;;;;;278.77;136.13;;;4.20;99.90;;;;;;5075591;28;20037;-65
2021/12/31 04:31:26;;;;;;;268.42;121.70;;;4.20;99.90;;;;;;5078155;28;20565;-65
2021/12/31 04:33:52;;;;;;;277.15;125.35;;;4.20;99.90;;;;;;5095974;28;20111;-65
2021/12/31 04:36:18;;;;;;;271.75;126.13;;;4.20;99.90;;;;;;5095601;28;20501;-65
2021/12/31 04:38:44;;;;;;;267.73;118.75;;;4.20;99.90;;;;;;5095915;28;20040;-65
2021/12/31 04:41:10;;;;;;;250.00;117.88;;;4.10;99.90;;;;;;5095882;28;20410;-65
2021/12/31 04:43:36;;;;;;;268.67;124.05;;;4.10;99.90;;;;;;5095962;28;20035;-65
2021/12/31 04:46:02;;;;;;;257.75;118.47;;;4.10;99.90;;;;;;5095709;28;20034;-65
2021/12/31 04:48:28;;;;;;;256.85;122.68;;;4.00;99.90;;;;;;5095872;28;20035;-65
2021/12/31 04:50:54;;;;;;;281.77;130.35;;;3.90;99.90;;;;;;5095423;28;20051;-65
2021/12/31 04:53:20;;;;;;;273.25;129.18;;;3.90;99.90;;;;;;5095498;28;20036;-65
2021/12/31 04:55:46;;;;;;;277.40;129.25;;;4.00;99.90;;;;;;5095565;28;20362;-65
2021/12/31 04:58:12;;;;;;;257.13;122.32;;;3.90;99.90;;;;;;5095121;28;20059;-65
2021/12/31 05:00:38;;;;;;;231.13;114.28;;;3.90;99.90;;;;;;5095371;28;20072;-66
2021/12/31 05:03:11;;;;;;;236.15;113.47;;;3.90;99.90;;;;;;5095457;28;20102;-65
2021/12/31 05:05:37;;;;;;;232.25;113.65;;;3.90;99.90;;;;;;5095389;28;20491;-65
2021/12/31 05:08:04;;;;;;;257.15;125.05;;;3.80;99.90;;;;;;5095371;28;20473;-65
2021/12/31 05:10:32;;;;;;;260.90;120.88;;;3.80;99.90;;;;;;5095164;28;20501;-65
2021/12/31 05:12:59;;;;;;;244.93;111.85;;;3.70;99.90;;;;;;5084505;28;20040;-65
2021/12/31 05:15:27;;;;;;;240.25;108.38;;;3.70;99.90;;;;;;5073913;28;20040;-65
2021/12/31 05:17:54;;;;;;;244.50;117.78;;;3.70;99.90;;;;;;5074491;28;20044;-65
2021/12/31 05:20:20;;;;;;;255.20;123.45;;;3.60;99.90;;;;;;5074720;28;20037;-65
2021/12/31 05:22:46;;;;;;;249.95;120.82;;;3.60;99.90;;;;;;5074659;28;20041;-65
2021/12/31 05:25:13;;;;;;;278.92;136.07;;;3.50;99.90;;;;;;5074518;28;20044;-65
2021/12/31 05:27:38;;;;;;;264.23;126.63;;;3.50;99.90;;;;;;5074540;28;20048;-65
2021/12/31 05:30:05;;;;;;;249.13;118.25;;;3.50;99.90;;;;;;5074803;28;20044;-65
2021/12/31 05:32:32;;;;;;;231.40;108.18;;;3.60;99.90;;;;;;5074334;28;20048;-65
2021/12/31 05:34:58;;;;;;;277.52;120.07;;;3.60;99.90;;;;;;5074546;28;20035;-66
2021/12/31 05:37:24;;;;;;;277.30;130.75;;;3.50;99.90;;;;;;5074526;28;20497;-65
2021/12/31 05:39:50;;;;;;;237.10;114.75;;;3.40;99.90;;;;;;5074314;28;20043;-65
2021/12/31 05:42:16;;;;;;;270.90;129.25;;;3.40;99.90;;;;;;5074310;28;20541;-65
2021/12/31 05:44:42;;;;;;;270.83;127.60;;;3.30;99.90;;;;;;5074432;28;20032;-65
2021/12/31 05:47:08;;;;;;;243.00;117.75;;;3.40;99.90;;;;;;5074246;28;20040;-65
2021/12/31 05:49:34;;;;;;;208.55;100.55;;;3.40;99.90;;;;;;5074280;28;20036;-66
2021/12/31 05:52:00;;;;;;;208.13;104.10;;;3.40;99.90;;;;;;5074536;28;20055;-66
2021/12/31 05:54:26;;;;;;;204.23;98.05;;;3.40;99.90;;;;;;5074142;28;20028;-66
2021/12/31 05:56:52;;;;;;;202.98;98.45;;;3.30;99.90;;;;;;5074460;28;20044;-65
2021/12/31 05:59:18;;;;;;;240.20;113.30;;;3.20;99.90;;;;;;5074181;28;20364;-66
2021/12/31 06:01:44;;;;;;;245.23;116.57;;;3.30;99.90;;;;;;5074143;28;20028;-65
2021/12/31 06:04:10;;;;;;;234.85;112.28;;;3.40;99.90;;;;;;5074386;28;20430;-66
2021/12/31 06:06:35;;;;;;;262.65;123.30;;;3.40;99.90;;;;;;5074447;28;20216;-66
2021/12/31 06:09:04;;;;;;;302.23;146.80;;;3.40;99.90;;;;;;5073962;28;20119;-66
2021/12/31 06:11:30;;;;;;;286.42;132.68;;;3.40;99.90;;;;;;5074206;28;20036;-66
2021/12/31 06:14:01;;;;;;;292.15;134.40;;;3.30;99.90;;;;;;5073507;28;20574;-65
2021/12/31 06:16:28;;;;;;;254.15;123.78;;;3.20;99.90;;;;;;5053973;28;20041;-66
2021/12/31 06:18:54;;;;;;;287.58;137.13;;;3.20;99.90;;;;;;5054103;28;20451;-66
2021/12/31 06:21:21;;;;;;;288.95;138.55;;;3.10;99.90;;;;;;5054030;28;20118;-66
2021/12/31 06:23:47;;;;;;;253.02;118.90;;;3.10;99.90;;;;;;5054063;28;20104;-66
2021/12/31 06:26:14;;;;;;;241.57;113.32;;;3.20;99.90;;;;;;5037088;28;20068;-66
2021/12/31 06:28:40;;;;;;;229.90;114.97;;;3.10;99.90;;;;;;5057902;28;20040;-66
2021/12/31 06:31:05;;;;;;;250.63;121.40;;;3.20;99.90;;;;;;5058093;28;20097;-66
2021/12/31 06:33:31;;;;;;;216.95;100.93;;;3.10;99.90;;;;;;5058004;28;20486;-66
2021/12/31 06:35:57;;;;;;;191.10;90.55;;;3.10;99.90;;;;;;5058281;28;20047;-66
2021/12/31 06:38:23;;;;;;;177.82;83.18;;;3.10;99.90;;;;;;5058349;28;20148;-66
2021/12/31 06:40:49;;;;;;;173.95;83.10;;;3.10;99.90;;;;;;5057973;28;20048;-66
2021/12/31 06:43:18;;;;;;;182.00;89.78;;;3.10;99.90;;;;;;5063303;28;20036;-66
2021/12/31 06:45:44;;;;;;;179.32;86.78;;;3.00;99.90;;;;;;5067407;28;20087;-65
2021/12/31 06:48:10;;;;;;;197.38;95.03;;;3.00;99.90;;;;;;5067201;28;20471;-65
2021/12/31 06:50:36;;;;;;;175.55;87.80;;;3.00;99.90;;;;;;5068383;28;20086;-65
2021/12/31 06:53:03;;;;;;;179.95;84.80;;;3.00;99.90;;;;;;5067221;28;20037;-65
2021/12/31 06:55:30;;;;;;;174.60;84.68;;;3.00;99.90;;;;;;5062002;28;20041;-65
2021/12/31 06:57:56;;;;;;;175.05;83.07;;;3.10;99.90;;;;;;5057940;28;20073;-65
2021/12/31 07:00:22;;;;;;;177.88;83.05;;;3.20;99.90;;;;;;5058142;28;20064;-65
2021/12/31 07:02:48;;;;;;;174.70;81.05;;;3.20;99.90;;;;;;5058157;28;20091;-66
2021/12/31 07:05:14;;;;;;;185.73;86.45;;;3.30;99.90;;;;;;5057659;28;20037;-66
2021/12/31 07:07:40;;;;;;;199.13;98.25;;;3.40;99.90;;;;;;5057788;28;20029;-66
2021/12/31 07:10:07;;;;;;;330.35;156.80;;;3.40;99.90;;;;;;5066211;28;20432;-66
2021/12/31 07:12:33;;;;;;;297.25;137.98;;;3.50;99.90;;;;;;5061428;28;20033;-66
2021/12/31 07:14:59;;;;;;;300.45;143.93;;;3.60;99.90;;;;;;5066840;28;20097;-66
2021/12/31 07:17:28;;;;;;;254.60;125.03;;;3.70;99.90;;;;;;5077532;28;20033;-66
2021/12/31 07:19:54;;;;;;;206.45;97.60;;;3.70;99.90;;;;;;5077398;28;20063;-66
2021/12/31 07:22:21;;;;;;;215.95;98.80;;;4.00;99.90;;;;;;5078289;28;20036;-66
2021/12/31 07:24:47;;;;;;;237.35;110.60;;;3.90;99.90;;;;;;5077453;28;20122;-67
2021/12/31 07:27:13;;;;;;;233.63;103.13;;;4.00;99.90;;;;;;5077652;28;20032;-66
2021/12/31 07:29:39;;;;;;;213.55;98.82;;;4.10;99.90;;;;;;5077929;28;20470;-66
2021/12/31 07:32:05;;;;;;;194.57;88.03;;;4.20;99.90;;;;;;5084806;28;20040;-66
2021/12/31 07:34:32;;;;;;;195.32;86.82;;;4.20;99.90;;;;;;5096953;28;20032;-66
2021/12/31 07:36:58;;;;;;;187.90;86.15;;;4.40;99.90;;;;;;5096956;28;20070;-66
2021/12/31 07:39:30;;;;;;;180.50;86.53;;;4.40;99.90;;;;;;5096083;28;20039;-66
2021/12/31 07:41:56;;;;;;;173.55;85.38;;;4.50;99.90;;;;;;5096849;28;20494;-66
2021/12/31 07:44:34;;;;;;;175.70;85.88;;;4.60;99.90;;;;;;5096980;28;20075;-66
2021/12/31 07:46:59;;;;;;;183.68;87.68;;;4.70;99.90;;;;;;5096698;28;20067;-66
2021/12/31 07:49:25;;;;;;;188.55;91.63;;;4.80;99.90;;;;;;5096884;28;20031;-66
2021/12/31 07:51:51;;;;;;;206.32;99.05;;;5.00;99.90;;;;;;5096849;28;20040;-66
2021/12/31 07:54:17;;;;;;;213.65;103.68;;;5.00;99.90;;;;;;5096853;28;20044;-66
2021/12/31 07:56:43;;;;;;;219.10;104.88;;;5.10;99.90;;;;;;5096717;28;20072;-65
2021/12/31 07:59:09;;;;;;;246.10;116.90;;;5.10;99.90;;;;;;5096828;28;20109;-65
2021/12/31 08:01:35;;;;;;;273.58;132.20;;;5.30;99.90;;;;;;5096622;28;20553;-66
2021/12/31 08:04:02;;;;;;;294.65;139.15;;;5.30;99.90;;;;;;5096515;28;20020;-66
2021/12/31 08:06:28;;;;;;;264.67;133.57;;;5.40;99.90;;;;;;5096462;28;20063;-66
2021/12/31 08:08:54;;;;;;;250.18;123.78;;;5.60;99.90;;;;;;5096724;28;20043;-66
2021/12/31 08:11:20;;;;;;;270.90;130.57;;;5.70;99.90;;;;;;5096159;28;20048;-66
2021/12/31 08:13:46;;;;;;;244.98;127.68;;;5.80;99.90;;;;;;5078801;28;20461;-66
2021/12/31 08:16:12;;;;;;;298.90;143.63;;;5.90;99.90;;;;;;5075772;28;20079;-66
2021/12/31 08:18:38;;;;;;;342.85;159.65;;;6.10;99.90;;;;;;5075685;28;20036;-66
2021/12/31 08:21:06;;;;;;;367.35;176.95;;;6.30;99.90;;;;;;5075973;28;20037;-66
2021/12/31 08:23:32;;;;;;;343.38;172.38;;;6.50;99.90;;;;;;5075663;28;20035;-66
2021/12/31 08:26:01;;;;;;;425.27;219.18;;;6.70;99.90;;;;;;5075858;28;20074;-66
2021/12/31 08:28:27;;;;;;;405.17;210.55;;;6.90;99.90;;;;;;5075981;28;20040;-66
2021/12/31 08:30:53;;;;;;;436.83;227.95;;;7.00;99.90;;;;;;5075783;28;20041;-66
2021/12/31 08:33:19;;;;;;;436.38;230.93;;;7.30;99.90;;;;;;5093931;28;20036;-66
2021/12/31 08:35:45;;;;;;;422.70;227.93;;;7.50;99.90;;;;;;5095772;28;20024;-66
2021/12/31 08:38:11;;;;;;;400.90;211.70;;;7.90;99.90;;;;;;5095752;28;20032;-66
2021/12/31 08:40:37;;;;;;;384.60;206.88;;;8.10;99.90;;;;;;5095868;28;20106;-66
2021/12/31 08:43:03;;;;;;;381.52;198.48;;;8.20;99.90;;;;;;5095742;28;20040;-66
2021/12/31 08:45:30;;;;;;;366.38;188.80;;;8.30;99.90;;;;;;5095506;28;20044;-66
2021/12/31 08:47:57;;;;;;;369.55;180.23;;;8.60;99.90;;;;;;5095741;28;20470;-66
2021/12/31 08:50:24;;;;;;;356.13;186.88;;;8.90;99.90;;;;;;5095201;28;20114;-67
2021/12/31 08:52:50;;;;;;;337.65;173.02;;;9.20;99.90;;;;;;5095391;28;20047;-67
2021/12/31 08:55:17;;;;;;;348.73;165.77;;;9.60;99.90;;;;;;5095884;28;20036;-68
2021/12/31 08:57:43;;;;;;;314.67;148.02;;;10.40;99.90;;;;;;5095262;28;20113;-68
2021/12/31 09:00:10;;;;;;;286.38;141.95;;;11.30;99.90;;;;;;5095451;28;20375;-68
2021/12/31 09:02:39;;;;;;;260.70;124.22;;;11.60;99.90;;;;;;5095355;28;20032;-67
2021/12/31 09:05:07;;;;;;;221.02;111.03;;;11.80;99.90;;;;;;5095305;28;20114;-67
2021/12/31 09:07:33;;;;;;;215.35;107.50;;;11.80;99.90;;;;;;5095314;28;20111;-67
2021/12/31 09:10:00;;;;;;;208.57;104.35;;;11.70;99.90;;;;;;5095417;28;20059;-68
2021/12/31 09:12:27;;;;;;;202.98;103.40;;;12.00;99.90;;;;;;5088924;28;20075;-69
2021/12/31 09:14:53;;;;;;;187.68;95.13;;;12.50;99.90;;;;;;5074848;28;20044;-69
2021/12/31 09:17:21;;;;;;;191.02;94.40;;;13.10;99.90;;;;;;5071880;28;20561;-69
2021/12/31 09:19:47;;;;;;;208.68;103.00;;;13.50;99.90;;;;;;5054754;28;20174;-69
2021/12/31 09:22:13;;;;;;;204.32;103.78;;;13.80;99.90;;;;;;5054701;28;20087;-69
2021/12/31 09:24:39;;;;;;;184.60;97.38;;;14.50;99.90;;;;;;5054673;28;20044;-69
2021/12/31 09:27:10;;;;;;;193.88;99.45;;;15.60;99.90;;;;;;5056385;28;20037;-69
2021/12/31 09:29:36;;;;;;;186.77;94.75;;;16.60;97.80;;;;;;5075408;28;20490;-69
2021/12/31 09:32:02;;;;;;;209.63;109.55;;;16.20;98.20;;;;;;5082996;28;20036;-68
2021/12/31 09:34:28;;;;;;;228.77;120.72;;;16.90;97.80;;;;;;5095620;28;20032;-68
2021/12/31 09:36:54;;;;;;;212.30;107.63;;;17.00;95.50;;;;;;5095220;28;20043;-68
2021/12/31 09:39:20;;;;;;;256.08;135.10;;;17.60;95.50;;;;;;5094728;28;20392;-68
2021/12/31 09:41:46;;;;;;;228.90;120.28;;;17.60;95.60;;;;;;5094531;28;20089;-66
2021/12/31 09:44:15;;;;;;;259.52;138.07;;;18.50;93.90;;;;;;5094622;28;20028;-65
2021/12/31 09:46:42;;;;;;;240.52;132.93;;;18.90;90.60;;;;;;5094404;28;20380;-65
2021/12/31 09:49:08;;;;;;;238.80;139.00;;;18.70;90.30;;;;;;5094442;28;20090;-65
2021/12/31 09:51:35;;;;;;;252.43;139.73;;;18.80;91.10;;;;;;5094469;28;20130;-65
2021/12/31 09:54:01;;;;;;;215.07;119.40;;;19.10;87.00;;;;;;5094535;28;20440;-65
2021/12/31 09:56:28;;;;;;;234.00;112.90;;;19.20;88.90;;;;;;5094346;28;20032;-64
2021/12/31 09:58:54;;;;;;;158.55;84.22;;;19.30;86.30;;;;;;5094325;28;20036;-64
2021/12/31 10:01:20;;;;;;;136.70;79.97;;;19.40;82.00;;;;;;5093866;28;20174;-64
2021/12/31 10:03:56;;;;;;;164.68;84.40;;;19.90;82.40;;;;;;5094346;28;20032;-64
2021/12/31 10:06:23;;;;;;;155.35;89.15;;;20.10;85.30;;;;;;5094571;28;20028;-64
2021/12/31 10:08:49;;;;;;;136.05;76.53;;;19.90;82.20;;;;;;5094520;28;20044;-64
2021/12/31 10:11:18;;;;;;;153.38;87.38;;;20.30;75.00;;;;;;5094575;28;20044;-64
2021/12/31 10:13:58;;;;;;;145.63;85.72;;;19.80;79.20;;;;;;5077467;28;20083;-64
2021/12/31 10:16:41;;;;;;;159.70;87.10;;;20.00;82.50;;;;;;5074097;28;20126;-64
2021/12/31 10:19:10;;;;;;;139.55;86.63;;;20.50;73.20;;;;;;5055803;28;20037;-63
2021/12/31 10:21:51;;;;;;;153.48;84.22;;;20.00;77.60;;;;;;5074119;28;20059;-64
2021/12/31 10:24:22;;;;;;;;;;;19.10;86.80;;;;;;5074415;28;20032;-64
2021/12/31 10:26:57;;;;;;;148.52;90.22;;;19.60;81.30;;;;;;5074260;28;20231;-64
2021/12/31 10:29:24;;;;;;;95.97;58.70;;;19.20;89.20;;;;;;5074100;28;20041;-64
2021/12/31 10:31:52;;;;;;;138.95;82.57;;;19.90;74.40;;;;;;5079756;28;20498;-64
2021/12/31 10:34:36;;;;;;;146.55;80.68;;;20.30;75.50;;;;;;5094104;28;20040;-63
2021/12/31 10:37:15;;;;;;;123.30;78.93;;;20.60;76.60;;;;;;5094150;28;20036;-63
2021/12/31 10:39:42;;;;;;;125.28;71.22;;;20.10;77.70;;;;;;5094119;28;20513;-63
2021/12/31 10:42:10;;;;;;;99.95;58.28;;;20.30;77.90;;;;;;5094025;28;20414;-63
2021/12/31 10:44:52;;;;;;;114.43;67.70;;;20.70;67.90;;;;;;5094141;28;20063;-63
2021/12/31 10:47:19;;;;;;;98.47;61.65;;;21.10;71.10;;;;;;5093380;28;20051;-63
2021/12/31 10:50:00;;;;;;;106.10;60.72;;;21.30;63.70;;;;;;5094137;28;20066;-63
2021/12/31 10:52:34;;;;;;;137.45;64.95;;;21.50;64.40;;;;;;5094175;28;20063;-63
2021/12/31 10:55:18;;;;;;;102.93;62.20;;;21.80;64.50;;;;;;5093953;28;20135;-64
2021/12/31 10:57:47;;;;;;;115.05;68.05;;;22.00;60.20;;;;;;5094262;28;20044;-63
2021/12/31 11:00:14;;;;;;;137.25;75.40;;;21.50;63.10;;;;;;5093757;28;20036;-63
2021/12/31 11:02:42;;;;;;;129.80;74.20;;;21.60;64.70;;;;;;5093972;28;20029;-63
2021/12/31 11:05:10;;;;;;;117.97;72.60;;;21.80;66.60;;;;;;5094024;28;20028;-63
2021/12/31 11:07:38;;;;;;;110.20;70.45;;;21.90;65.30;;;;;;5093656;28;20039;-63
2021/12/31 11:10:05;;;;;;;103.30;67.22;;;22.00;64.60;;;;;;5093671;28;20055;-63
2021/12/31 11:12:31;;;;;;;104.90;65.00;;;22.30;62.00;;;;;;5088222;28;20352;-63
2021/12/31 11:14:57;;;;;;;100.95;62.20;;;22.40;65.00;;;;;;5076955;28;20048;-63
2021/12/31 11:17:24;;;;;;;95.50;59.78;;;22.70;61.60;;;;;;5073521;28;20064;-63
2021/12/31 11:19:51;;;;;;;89.03;52.95;;;22.80;60.40;;;;;;5057224;28;20037;-63
2021/12/31 11:22:21;;;;;;;57.13;36.65;;;23.40;57.60;;;;;;5056848;28;20072;-63
2021/12/31 11:24:47;;;;;;;64.95;41.78;;;23.20;53.30;;;;;;5057184;28;20112;-63
2021/12/31 11:27:42;;;;;;;64.80;40.25;;;22.50;55.20;;;;;;5057021;28;20091;-63
2021/12/31 11:30:34;;;;;;;66.05;42.55;;;23.20;55.70;;;;;;5056876;28;20441;-63
2021/12/31 11:33:26;;;;;;;71.88;42.97;;;23.00;55.40;;;;;;5056785;28;20387;-63
2021/12/31 11:36:05;;;;;;;55.67;32.95;;;23.80;53.60;;;;;;5056669;28;20099;-63
2021/12/31 11:38:31;;;;;;;64.32;37.35;;;23.70;51.20;;;;;;5056776;28;20111;-63
2021/12/31 11:41:12;;;;;;;60.40;37.53;;;22.70;53.20;;;;;;5056762;28;20049;-63
2021/12/31 11:43:39;;;;;;;;;;;23.20;53.90;;;;;;5057008;28;20037;-63
2021/12/31 11:51:14;;;;;;;55.90;35.00;;;23.60;51.70;;;;;;5056372;28;20025;-63
2021/12/31 11:53:58;;;;;;;60.50;35.85;;;24.00;52.60;;;;;;5056504;28;20509;-63
2021/12/31 11:56:36;;;;;;;54.85;35.72;;;23.50;50.70;;;;;;5056389;28;20502;-63
2021/12/31 11:59:11;;;;;;;67.00;37.60;;;23.90;51.90;;;;;;5056205;28;20398;-63
2021/12/31 12:01:37;;;;;;;46.88;30.88;;;23.90;50.20;;;;;;5056477;28;20115;-63
2021/12/31 12:04:31;;;;;;;45.30;29.15;;;24.00;50.00;;;;;;5055865;28;20068;-63
2021/12/31 12:07:01;;;;;;;62.22;35.10;;;24.50;49.40;;;;;;5056363;28;20036;-63
2021/12/31 12:09:36;;;;;;;45.55;29.50;;;25.00;49.90;;;;;;5056324;28;20033;-63
2021/12/31 12:12:03;;;;;;;67.13;31.95;;;24.40;48.00;;;;;;5058704;28;20045;-63
2021/12/31 12:14:41;;;;;;;56.63;31.08;;;24.40;48.90;;;;;;5076040;28;20048;-63
2021/12/31 12:17:08;;;;;;;52.50;29.52;;;24.90;48.10;;;;;;5074641;28;20043;-62
2021/12/31 12:19:46;;;;;;;54.22;30.40;;;24.50;47.90;;;;;;5055772;28;20116;-63
2021/12/31 12:22:41;;;;;;;63.67;32.30;;;24.40;48.90;;;;;;5056013;28;20040;-62
2021/12/31 12:25:28;;;;;;;45.58;29.50;;;25.00;48.50;;;;;;5055610;28;20107;-63
2021/12/31 12:28:06;;;;;;;55.90;32.78;;;24.00;49.90;;;;;;5037627;28;20061;-63
2021/12/31 12:30:42;;;;;;;53.10;31.05;;;24.70;50.00;;;;;;5055694;28;20118;-63
2021/12/31 12:33:16;;;;;;;53.80;31.20;;;24.40;50.20;;;;;;5051115;28;20041;-63